FW1711 Weather Reports


Display with metric or nautical units.
time (UTC)temp
F
wind
direction
speed
MPH
gust
MPH
rain 1hr
in
rain 24hr
in
rain mn
in
humidity
%
barometer
mb
20190923024755 48 348 0.0 2.0 0.00 0.00 0.00 78 1012.3
20190923023151 48 348 0.0 1.0 0.00 0.00 0.00 78 1012.3
20190923021729 48 348 0.0 1.0 0.00 0.00 0.00 78 1012.2
20190923020222 49 350 0.0 4.0 0.00 0.00 0.00 76 1012.1
20190923014640 49 25 0.0 1.0 0.00 0.00 0.00 76 1011.9
20190923013105 50 25 0.0 2.0 0.00 0.00 0.00 75 1011.9
20190923011632 50 37 0.0 4.0 0.00 0.00 0.00 74 1011.9
20190923010240 51 37 0.0 1.0 0.00 0.00 0.00 73 1011.8
20190923004739 51 36 0.0 1.0 0.00 0.00 0.00 74 1011.8
20190923003205 51 36 0.0 2.0 0.00 0.00 0.00 74 1011.7
20190923001658 50 27 0.0 1.0 0.00 0.00 0.00 75 1011.7
20190923000146 51 28 0.0 2.0 0.00 0.00 0.00 74 1011.7
20190922234628 51 148 0.0 1.0 0.00 0.00 0.00 74 1011.6
20190922233108 51 132 0.0 2.0 0.00 0.00 0.00 74 1011.7
20190922231652 50 119 0.0 1.0 0.00 0.00 0.00 75 1011.8
20190922230133 51 142 0.0 1.0 0.00 0.00 0.00 75 1011.7
20190922224554 51 148 0.0 1.0 0.00 0.00 0.00 74 1011.8
20190922223125 52 148 0.0 2.0 0.00 0.00 0.00 71 1011.9
20190922221626 52 162 0.0 2.0 0.00 0.00 0.00 73 1012.0
20190922220112 52 163 0.0 1.0 0.00 0.00 0.00 74 1011.9
20190922214649 51 179 0.0 1.0 0.00 0.00 0.00 75 1012.0
20190922213116 51 179 0.0 1.0 0.00 0.00 0.00 74 1011.9
20190922211547 51 179 0.0 1.0 0.00 0.00 0.00 75 1012.0
20190922210142 52 179 0.0 1.0 0.00 0.00 0.00 74 1012.0
20190922204542 52 179 0.0 1.0 0.00 0.00 0.00 74 1011.9
20190922203055 53 179 0.0 0.0 0.00 0.00 0.00 72 1012.0
20190922201613 53 179 0.0 1.0 0.00 0.00 0.00 71 1012.0
20190922200038 54 179 0.0 1.0 0.00 0.00 0.00 71 1012.0
20190922194554 55 163 0.0 1.0 0.00 0.00 0.00 70 1012.0
20190922193049 55 163 0.0 1.0 0.00 0.00 0.00 68 1012.0
20190922191610 55 163 0.0 1.0 0.00 0.00 0.00 69 1012.0
20190922190055 55 163 0.0 0.0 0.00 0.00 0.00 69 1011.9
20190922184608 56 163 0.0 1.0 0.00 0.00 0.00 67 1011.9
20190922183102 56 163 0.0 0.0 0.00 0.00 0.00 66 1012.0
20190922181608 57 163 0.0 0.0 0.00 0.00 0.00 66 1012.0
20190922180117 58 163 0.0 0.0 0.00 0.00 0.00 64 1012.0
20190922174606 59 163 0.0 0.0 0.00 0.00 0.00 62 1011.9
20190922173116 60 163 0.0 0.0 0.00 0.00 0.00 60 1011.9
20190922171559 61 163 0.0 1.0 0.00 0.00 0.00 59 1011.8
20190922170055 62 163 0.0 1.0 0.00 0.00 0.00 55 1011.9
20190922164540 65 163 0.0 1.0 0.00 0.00 0.00 52 1011.9
20190922163043 67 164 0.0 1.0 0.00 0.00 0.00 47 1012.1
20190922161536 68 168 0.0 4.0 0.00 0.00 0.00 43 1012.0
20190922160048 69 159 0.0 5.0 0.00 0.00 0.00 41 1012.0
20190922154552 70 149 1.0 5.0 0.00 0.00 0.00 40 1012.0
20190922153045 71 144 2.0 6.0 0.00 0.00 0.00 39 1012.1
20190922151604 71 201 1.0 6.0 0.00 0.00 0.00 39 1012.1
20190922150037 72 300 1.0 4.0 0.00 0.00 0.00 39 1012.0
20190922144527 72 163 1.0 5.0 0.00 0.00 0.00 38 1012.1
20190922143048 72 160 1.0 6.0 0.00 0.00 0.00 38 1012.0
20190922141530 72 32 0.0 7.0 0.00 0.00 0.00 40 1012.0
20190922140020 72 167 1.0 7.0 0.00 0.00 0.00 37 1012.2
20190922134518 73 80 2.0 6.0 0.00 0.00 0.00 36 1012.2
20190922133017 72 206 1.0 6.0 0.00 0.00 0.00 39 1012.3
20190922131518 72 153 1.0 5.0 0.00 0.00 0.00 37 1012.3
20190922130014 72 171 1.0 6.0 0.00 0.00 0.00 38 1012.4
20190922124508 71 22 1.0 9.0 0.00 0.00 0.00 38 1012.7
20190922123004 71 100 1.0 7.0 0.00 0.00 0.00 38 1012.8
20190922121510 71 57 2.0 7.0 0.00 0.00 0.00 38 1012.9
20190922120150 71 150 2.0 7.0 0.00 0.00 0.00 39 1013.1
20190922114701 71 148 1.0 7.0 0.00 0.00 0.00 39 1013.1
20190922113311 70 125 1.0 7.0 0.00 0.00 0.00 40 1013.4
20190922111701 70 78 1.0 6.0 0.00 0.00 0.00 41 1013.6
20190922110121 69 331 1.0 6.0 0.00 0.00 0.00 44 1013.8
20190922104642 69 123 3.0 8.0 0.00 0.00 0.00 42 1014.1
20190922103109 69 190 1.0 7.0 0.00 0.00 0.00 45 1014.2
20190922101728 69 95 2.0 8.0 0.00 0.00 0.00 44 1014.6
20190922100111 69 244 3.0 7.0 0.00 0.00 0.00 43 1014.7
20190922094652 68 209 2.0 7.0 0.00 0.00 0.00 43 1014.8
20190922093147 69 139 1.0 7.0 0.00 0.00 0.00 44 1014.9
20190922091621 68 126 2.0 6.0 0.00 0.00 0.00 45 1015.1
20190922090128 67 142 1.0 7.0 0.00 0.00 0.00 46 1015.1
20190922084548 66 107 1.0 6.0 0.00 0.00 0.00 46 1015.2
20190922083116 66 98 2.0 6.0 0.00 0.00 0.00 46 1015.4
20190922081602 65 148 1.0 7.0 0.00 0.00 0.00 48 1015.3
20190922080050 64 85 2.0 8.0 0.00 0.00 0.00 48 1015.7
20190922074546 64 228 1.0 7.0 0.00 0.00 0.00 54 1015.7
20190922073030 62 209 2.0 6.0 0.00 0.00 0.00 52 1015.7
20190922071522 61 168 0.0 6.0 0.00 0.00 0.00 58 1015.7
20190922070026 59 161 1.0 6.0 0.00 0.00 0.00 59 1015.7
20190922064514 58 163 0.0 2.0 0.00 0.00 0.00 62 1016.1
20190922063024 57 281 0.0 4.0 0.00 0.00 0.00 64 1016.2
20190922060232 52 197 0.0 2.0 0.00 0.00 0.00 71 1016.2
20190922054645 52 215 0.0 2.0 0.00 0.00 0.00 72 1016.2
20190922053244 51 107 0.0 2.0 0.00 0.00 0.00 73 1016.3
20190922051829 50 130 0.0 2.0 0.00 0.00 0.00 73 1016.3
20190922050227 50 126 0.0 1.0 0.00 0.00 0.00 73 1016.4
20190922044847 50 126 0.0 2.0 0.00 0.00 0.00 73 1016.4
20190922043140 51 219 0.0 2.0 0.00 0.00 0.00 73 1016.5
20190922041712 51 202 0.0 2.0 0.00 0.00 0.00 73 1016.5
20190922040216 51 136 0.0 2.0 0.00 0.00 0.00 73 1016.6
20190922034616 51 114 0.0 2.0 0.00 0.00 0.00 73 1016.7
20190922033124 51 159 1.0 5.0 0.00 0.00 0.00 73 1016.9
20190922031623 51 176 0.0 4.0 0.00 0.00 0.00 73 1016.9
20190922030129 51 228 0.0 4.0 0.00 0.00 0.00 73 1017.0